createdAt,value
2024-04-14T00:01:30.684Z,101666.36
2024-04-14T00:03:59.382Z,101666.79
2024-04-14T00:06:27.907Z,101670.64
2024-04-14T00:08:55.788Z,101668.58
2024-04-14T00:11:24.012Z,101667.25
2024-04-14T00:13:52.372Z,101666.77
2024-04-14T00:16:20.372Z,101664.94
2024-04-14T00:18:48.602Z,101666.84
2024-04-14T00:21:17.506Z,101662.81
2024-04-14T00:23:45.296Z,101659.77
2024-04-14T00:26:13.762Z,101658.25
2024-04-14T00:28:41.847Z,101658.89
2024-04-14T00:31:09.680Z,101656.31
2024-04-14T00:33:37.674Z,101659.05
2024-04-14T00:36:06.567Z,101661.63
2024-04-14T00:38:34.665Z,101662.30
2024-04-14T00:41:02.982Z,101660.33
2024-04-14T00:43:31.376Z,101661.42
2024-04-14T00:45:59.715Z,101658.57
2024-04-14T00:48:28.194Z,101658.84
2024-04-14T00:50:56.633Z,101661.83
2024-04-14T00:53:24.803Z,101661.58
2024-04-14T00:55:52.993Z,101658.21
2024-04-14T00:58:20.851Z,101660.67
2024-04-14T01:00:48.783Z,101659.96
2024-04-14T01:03:16.992Z,101661.70
2024-04-14T01:05:45.390Z,101667.74
2024-04-14T01:08:13.529Z,101667.35
2024-04-14T01:10:41.938Z,101668.71
2024-04-14T01:13:09.987Z,101668.41
2024-04-14T01:15:38.860Z,101669.28
2024-04-14T01:18:09.159Z,101670.05
2024-04-14T01:20:37.231Z,101668.14
2024-04-14T01:23:05.532Z,101665.58
2024-04-14T01:25:33.667Z,101668.00
2024-04-14T01:28:01.936Z,101666.03
2024-04-14T01:30:29.941Z,101669.83
2024-04-14T01:32:58.944Z,101667.05
2024-04-14T01:35:27.377Z,101660.42
2024-04-14T01:38:05.617Z,101664.79
2024-04-14T01:40:40.384Z,101662.29
2024-04-14T01:43:09.112Z,101663.55
2024-04-14T01:45:36.979Z,101663.06
2024-04-14T01:48:06.145Z,101666.41
2024-04-14T01:50:34.080Z,101665.75
2024-04-14T01:53:02.108Z,101666.38
2024-04-14T01:55:29.868Z,101666.43
2024-04-14T01:58:00.349Z,101663.14
2024-04-14T02:00:28.412Z,101665.08
2024-04-14T02:02:57.521Z,101663.48
2024-04-14T02:05:25.914Z,101666.27
2024-04-14T02:07:53.879Z,101666.77
2024-04-14T02:10:21.969Z,101666.78
2024-04-14T02:12:49.872Z,101670.67
2024-04-14T02:15:17.918Z,101673.44
2024-04-14T02:17:45.880Z,101673.16
2024-04-14T02:20:14.615Z,101672.83
2024-04-14T02:22:42.720Z,101669.01
2024-04-14T02:25:10.835Z,101667.39
2024-04-14T02:27:38.709Z,101666.43
2024-04-14T02:30:07.513Z,101664.59
2024-04-14T02:32:36.159Z,101658.44
2024-04-14T02:35:04.571Z,101654.61
2024-04-14T02:37:32.915Z,101661.32
2024-04-14T02:40:00.997Z,101666.49
2024-04-14T02:42:32.984Z,101663.45
2024-04-14T02:45:00.920Z,101664.40
2024-04-14T02:47:28.890Z,101665.31
2024-04-14T02:49:56.970Z,101670.01
2024-04-14T02:52:24.989Z,101674.35
2024-04-14T02:54:52.877Z,101672.05
2024-04-14T02:57:21.019Z,101672.41
2024-04-14T02:59:49.255Z,101677.35
2024-04-14T03:02:18.142Z,101674.04
2024-04-14T03:04:49.625Z,101670.77
2024-04-14T03:07:17.831Z,101667.23
2024-04-14T03:09:45.810Z,101671.34
2024-04-14T03:12:13.721Z,101668.24
2024-04-14T03:14:41.790Z,101671.54
2024-04-14T03:17:10.547Z,101673.22
2024-04-14T03:19:39.650Z,101676.42
2024-04-14T03:22:07.434Z,101675.39
2024-04-14T03:24:35.285Z,101673.61
2024-04-14T03:27:03.381Z,101675.42
2024-04-14T03:29:31.141Z,101675.03
2024-04-14T03:31:59.215Z,101675.30
2024-04-14T03:34:27.683Z,101674.75
2024-04-14T03:36:56.243Z,101677.66
2024-04-14T03:39:24.114Z,101678.66
2024-04-14T03:41:52.039Z,101680.31
2024-04-14T03:44:20.059Z,101679.70
2024-04-14T03:46:48.087Z,101680.09
2024-04-14T03:49:16.329Z,101683.74
2024-04-14T03:51:44.230Z,101683.27
2024-04-14T03:54:12.245Z,101680.02
2024-04-14T03:56:40.336Z,101676.47
2024-04-14T03:59:08.294Z,101678.67
2024-04-14T04:01:36.171Z,101678.39
2024-04-14T04:04:04.729Z,101679.15
2024-04-14T04:06:32.993Z,101679.14
2024-04-14T04:09:00.992Z,101678.98
2024-04-14T04:11:30.095Z,101681.41
2024-04-14T04:13:58.295Z,101677.08
2024-04-14T04:16:26.708Z,101680.15
2024-04-14T04:18:57.732Z,101681.88
2024-04-14T04:21:27.776Z,101683.02
2024-04-14T04:23:55.566Z,101684.00
2024-04-14T04:26:23.568Z,101680.35
2024-04-14T04:28:51.343Z,101678.08
2024-04-14T04:31:19.665Z,101679.32
2024-04-14T04:33:47.776Z,101677.99
2024-04-14T04:36:18.581Z,101674.48
2024-04-14T04:38:46.692Z,101676.60
2024-04-14T04:41:14.831Z,101678.83
2024-04-14T04:43:43.574Z,101678.75
2024-04-14T04:46:11.640Z,101680.33
2024-04-14T04:48:39.957Z,101680.67
2024-04-14T04:51:08.307Z,101680.52
2024-04-14T04:53:36.577Z,101679.62
2024-04-14T04:56:04.673Z,101679.33
2024-04-14T04:58:32.614Z,101678.83
2024-04-14T05:01:00.676Z,101675.80
2024-04-14T05:03:32.097Z,101675.67
2024-04-14T05:06:02.307Z,101673.46
2024-04-14T05:08:30.334Z,101670.15
2024-04-14T05:10:58.952Z,101672.63
2024-04-14T05:13:27.658Z,101672.03
2024-04-14T05:15:55.926Z,101671.09
2024-04-14T05:18:24.661Z,101663.20
2024-04-14T05:20:52.915Z,101661.34
2024-04-14T05:23:20.784Z,101663.27
2024-04-14T05:25:49.464Z,101660.70
2024-04-14T05:28:17.643Z,101661.83
2024-04-14T05:30:47.257Z,101662.58
2024-04-14T05:33:15.979Z,101665.15
2024-04-14T05:35:53.266Z,101660.55
2024-04-14T05:38:21.129Z,101655.82
2024-04-14T05:40:49.167Z,101651.54
2024-04-14T05:43:17.159Z,101647.91
2024-04-14T05:45:45.928Z,101645.52
2024-04-14T05:48:15.044Z,101636.01
2024-04-14T05:50:43.451Z,101633.17
2024-04-14T05:53:13.161Z,101628.67
2024-04-14T05:55:41.183Z,101624.62
2024-04-14T05:58:09.738Z,101629.89
2024-04-14T06:00:38.010Z,101626.33
2024-04-14T06:03:06.746Z,101627.68
2024-04-14T06:05:35.027Z,101623.08
2024-04-14T06:08:04.515Z,101620.06
2024-04-14T06:10:32.293Z,101616.80
2024-04-14T06:13:00.161Z,101615.65
2024-04-14T06:15:28.662Z,101617.35
2024-04-14T06:17:56.757Z,101621.02
2024-04-14T06:20:24.755Z,101616.45
2024-04-14T06:22:52.787Z,101616.30
2024-04-14T06:25:20.822Z,101614.55
2024-04-14T06:27:48.757Z,101611.55
2024-04-14T06:30:16.838Z,101607.74
2024-04-14T06:32:45.249Z,101599.21
2024-04-14T06:35:13.259Z,101600.91
2024-04-14T06:37:41.263Z,101599.63
2024-04-14T06:40:10.518Z,101597.70
2024-04-14T06:42:39.315Z,101588.40
2024-04-14T06:45:07.810Z,101585.14
2024-04-14T06:47:36.142Z,101583.50
2024-04-14T06:50:04.464Z,101579.60
2024-04-14T06:52:32.427Z,101574.25
2024-04-14T06:55:00.791Z,101568.55
2024-04-14T06:57:28.726Z,101558.29
2024-04-14T06:59:56.591Z,101560.24
2024-04-14T07:02:24.822Z,101554.74
2024-04-14T07:04:53.023Z,101551.51
2024-04-14T07:07:21.038Z,101555.48
2024-04-14T07:09:48.823Z,101553.14
2024-04-14T07:12:16.865Z,101545.95
2024-04-14T07:14:44.904Z,101543.92
2024-04-14T07:17:13.131Z,101544.46
2024-04-14T07:19:41.605Z,101545.53
2024-04-14T07:22:09.418Z,101543.20
2024-04-14T07:24:37.379Z,101545.22
2024-04-14T07:27:07.952Z,101535.11
2024-04-14T07:29:35.759Z,101534.23
2024-04-14T07:32:03.979Z,101530.72
2024-04-14T07:34:31.764Z,101526.17
2024-04-14T07:37:00.826Z,101526.25
2024-04-14T07:39:28.940Z,101525.40
2024-04-14T07:41:58.791Z,101521.35
2024-04-14T07:44:26.703Z,101524.52
2024-04-14T07:46:54.455Z,101518.71
2024-04-14T07:49:23.441Z,101522.69
2024-04-14T07:51:51.347Z,101514.36
2024-04-14T07:54:19.557Z,101509.52
2024-04-14T07:56:47.406Z,101502.23
2024-04-14T07:59:15.167Z,101496.45
2024-04-14T08:01:42.981Z,101501.44
2024-04-14T08:04:11.347Z,101493.48
2024-04-14T08:06:39.560Z,101494.71
2024-04-14T08:09:07.604Z,101490.16
2024-04-14T08:11:35.435Z,101480.63
2024-04-14T08:14:03.364Z,101480.22
2024-04-14T08:16:31.186Z,101476.67
2024-04-14T08:18:58.999Z,101476.80
2024-04-14T08:21:26.997Z,101468.52
2024-04-14T08:23:54.949Z,101468.36
2024-04-14T08:26:23.032Z,101468.84
2024-04-14T08:28:50.834Z,101471.55
2024-04-14T08:31:18.848Z,101464.11
2024-04-14T08:33:46.816Z,101462.70
2024-04-14T08:36:15.115Z,101460.62
2024-04-14T08:38:43.182Z,101453.15
2024-04-14T08:41:16.801Z,101456.91
2024-04-14T08:43:45.038Z,101453.91
2024-04-14T08:46:17.152Z,101451.77
2024-04-14T08:48:49.332Z,101456.31
2024-04-14T08:51:19.395Z,101445.86
2024-04-14T08:53:50.740Z,101442.54
2024-04-14T08:56:19.089Z,101448.29
2024-04-14T08:58:47.345Z,101443.04
2024-04-14T09:01:15.659Z,101433.38
2024-04-14T09:03:43.990Z,101433.13
2024-04-14T09:06:12.536Z,101433.35
2024-04-14T09:08:40.502Z,101426.42
2024-04-14T09:11:09.094Z,101423.20
2024-04-14T09:13:37.883Z,101424.98
2024-04-14T09:16:09.064Z,101418.37
2024-04-14T09:18:39.665Z,101417.19
2024-04-14T09:21:07.805Z,101408.74
2024-04-14T09:23:35.576Z,101403.55
2024-04-14T09:26:05.662Z,101395.41
2024-04-14T09:28:33.820Z,101390.42
2024-04-14T09:31:01.975Z,101389.32
2024-04-14T09:33:32.936Z,101387.57
2024-04-14T09:36:01.643Z,101381.55
2024-04-14T09:38:30.124Z,101383.19
2024-04-14T09:41:00.073Z,101382.02
2024-04-14T09:43:29.077Z,101382.10
2024-04-14T09:45:57.607Z,101376.27
2024-04-14T09:48:26.209Z,101376.92
2024-04-14T09:50:55.799Z,101363.22
2024-04-14T09:53:24.207Z,101361.46
2024-04-14T09:55:52.146Z,101356.71
2024-04-14T09:58:20.317Z,101351.36
2024-04-14T10:00:48.806Z,101346.84
2024-04-14T10:03:17.192Z,101343.98
2024-04-14T10:05:45.540Z,101333.11
2024-04-14T10:08:14.617Z,101329.84
2024-04-14T10:10:44.403Z,101326.22
2024-04-14T10:13:14.813Z,101317.17
2024-04-14T10:15:46.300Z,101311.25
2024-04-14T10:18:16.409Z,101308.91
2024-04-14T10:20:48.332Z,101301.84
2024-04-14T10:23:18.822Z,101293.59
2024-04-14T10:25:50.345Z,101300.17
2024-04-14T10:28:22.341Z,101293.27
2024-04-14T10:31:04.367Z,101295.43
2024-04-14T10:33:32.750Z,101288.77
2024-04-14T10:36:02.870Z,101284.20
2024-04-14T10:38:33.136Z,101277.86
2024-04-14T10:41:01.426Z,101275.39
2024-04-14T10:43:31.122Z,101269.01
2024-04-14T10:46:02.011Z,101265.65
2024-04-14T10:48:30.865Z,101261.46
2024-04-14T10:51:01.010Z,101251.77
2024-04-14T10:53:29.887Z,101243.84
2024-04-14T10:55:58.006Z,101239.36
2024-04-14T10:58:30.674Z,101240.12
2024-04-14T11:00:58.897Z,101242.16
2024-04-14T11:03:27.269Z,101227.62
2024-04-14T11:05:56.015Z,101225.64
2024-04-14T11:08:25.451Z,101223.27
2024-04-14T11:10:53.943Z,101215.63
2024-04-14T11:13:25.254Z,101213.06
2024-04-14T11:15:59.671Z,101205.36
2024-04-14T11:18:29.040Z,101202.31
2024-04-14T11:20:57.025Z,101199.83
2024-04-14T11:23:25.102Z,101197.15
2024-04-14T11:25:55.463Z,101190.02
2024-04-14T11:28:23.643Z,101187.71
2024-04-14T11:30:52.205Z,101180.63
2024-04-14T11:33:24.113Z,101170.02
2024-04-14T11:35:58.869Z,101171.12
2024-04-14T11:38:27.315Z,101168.79
2024-04-14T11:40:56.032Z,101165.52
2024-04-14T11:43:24.511Z,101151.48
2024-04-14T11:45:52.710Z,101143.91
2024-04-14T11:48:21.551Z,101139.27
2024-04-14T11:50:49.964Z,101136.89
2024-04-14T11:53:18.122Z,101126.52
2024-04-14T11:55:46.827Z,101124.80
2024-04-14T11:58:17.593Z,101122.98
2024-04-14T12:00:45.925Z,101120.61
2024-04-14T12:03:13.930Z,101116.14
2024-04-14T12:05:41.759Z,101112.63
2024-04-14T12:08:09.951Z,101101.19
2024-04-14T12:10:37.878Z,101099.07
2024-04-14T12:13:07.440Z,101100.92
2024-04-14T12:15:35.913Z,101090.60
2024-04-14T12:18:04.535Z,101090.20
2024-04-14T12:20:33.198Z,101079.21
2024-04-14T12:23:01.819Z,101074.96
2024-04-14T12:25:30.100Z,101063.71
2024-04-14T12:27:58.341Z,101069.71
2024-04-14T12:30:35.758Z,101066.52
2024-04-14T12:33:08.641Z,101052.28
2024-04-14T12:35:36.556Z,101052.62
2024-04-14T12:38:04.635Z,101050.05
2024-04-14T12:40:32.553Z,101040.80
2024-04-14T12:43:00.823Z,101027.52
2024-04-14T12:45:29.679Z,101027.97
2024-04-14T12:47:57.613Z,101026.86
2024-04-14T12:50:32.685Z,101022.11
2024-04-14T12:53:08.466Z,101010.41
2024-04-14T12:55:36.287Z,101006.50
2024-04-14T12:58:04.676Z,101005.02
2024-04-14T13:00:33.630Z,100998.23
2024-04-14T13:03:03.459Z,100996.20
2024-04-14T13:05:31.675Z,100984.17
2024-04-14T13:08:00.126Z,100987.66
2024-04-14T13:10:29.314Z,100978.91
2024-04-14T13:12:57.293Z,100971.19
2024-04-14T13:15:26.170Z,100964.98
2024-04-14T13:17:54.021Z,100961.08
2024-04-14T13:20:22.040Z,100952.38
2024-04-14T13:22:50.038Z,100947.15
2024-04-14T13:25:18.182Z,100944.59
2024-04-14T13:27:47.130Z,100936.84
2024-04-14T13:30:14.988Z,100932.24
2024-04-14T13:32:44.461Z,100926.30
2024-04-14T13:35:12.437Z,100923.66
2024-04-14T13:37:40.425Z,100925.38
2024-04-14T13:40:08.627Z,100912.69
2024-04-14T13:42:36.769Z,100914.70
2024-04-14T13:45:05.351Z,100905.30
2024-04-14T13:47:33.217Z,100903.08
2024-04-14T13:50:01.326Z,100898.31
2024-04-14T13:52:30.185Z,100896.95
2024-04-14T13:54:59.878Z,100894.40
2024-04-14T13:57:27.967Z,100889.87
2024-04-14T13:59:56.380Z,100886.34
2024-04-14T14:02:24.338Z,100881.74
2024-04-14T14:04:52.405Z,100873.48
2024-04-14T14:07:22.616Z,100874.33
2024-04-14T14:09:50.986Z,100870.67
2024-04-14T14:12:20.823Z,100868.67
2024-04-14T14:14:52.243Z,100867.25
2024-04-14T14:17:20.360Z,100860.12
2024-04-14T14:19:49.770Z,100858.81
2024-04-14T14:22:17.590Z,100856.22
2024-04-14T14:24:45.466Z,100856.66
2024-04-14T14:27:13.307Z,100852.41
2024-04-14T14:29:41.148Z,100855.10
2024-04-14T14:32:09.360Z,100850.23
2024-04-14T14:34:55.846Z,100850.23
2024-04-14T14:37:23.885Z,100841.14
2024-04-14T14:39:52.815Z,100838.33
2024-04-14T14:42:20.924Z,100840.84
2024-04-14T14:44:48.773Z,100841.00
2024-04-14T14:47:16.625Z,100831.30
2024-04-14T14:49:44.928Z,100827.00
2024-04-14T14:52:13.052Z,100826.20
2024-04-14T14:54:41.190Z,100824.67
2024-04-14T14:57:09.154Z,100819.77
2024-04-14T14:59:37.148Z,100813.20
2024-04-14T15:02:04.955Z,100811.35
2024-04-14T15:04:32.816Z,100805.89
2024-04-14T15:07:00.752Z,100803.93
2024-04-14T15:09:29.291Z,100795.41
2024-04-14T15:11:57.369Z,100796.86
2024-04-14T15:14:25.715Z,100793.30
2024-04-14T15:16:53.913Z,100788.23
2024-04-14T15:19:22.258Z,100782.80
2024-04-14T15:21:50.069Z,100784.26
2024-04-14T15:24:21.583Z,100783.92
2024-04-14T15:26:49.639Z,100780.70
2024-04-14T15:29:18.557Z,100781.83
2024-04-14T15:31:46.535Z,100779.97
2024-04-14T15:34:14.785Z,100774.02
2024-04-14T15:36:42.724Z,100773.73
2024-04-14T15:39:10.717Z,100768.29
2024-04-14T15:41:38.676Z,100769.09
2024-04-14T15:44:14.554Z,100767.61
2024-04-14T15:46:46.233Z,100771.66
2024-04-14T15:49:14.384Z,100767.53
2024-04-14T15:51:42.479Z,100762.27
2024-04-14T15:54:10.533Z,100762.27
2024-04-14T15:56:39.380Z,100755.73
2024-04-14T15:59:07.667Z,100763.11
2024-04-14T16:01:35.821Z,100758.27
2024-04-14T16:04:04.481Z,100765.09
2024-04-14T16:06:33.122Z,100764.08
2024-04-14T16:09:01.643Z,100764.38
2024-04-14T16:11:29.773Z,100765.41
2024-04-14T16:13:57.961Z,100762.61
2024-04-14T16:16:28.328Z,100764.59
2024-04-14T16:18:56.418Z,100762.63
2024-04-14T16:21:25.127Z,100763.38
2024-04-14T16:23:53.555Z,100763.63
2024-04-14T16:26:21.331Z,100767.09
2024-04-14T16:28:49.430Z,100771.42
2024-04-14T16:31:17.595Z,100771.30
2024-04-14T16:33:46.042Z,100772.56
2024-04-14T16:36:14.397Z,100774.42
2024-04-14T16:38:42.213Z,100776.04
2024-04-14T16:41:10.383Z,100776.23
2024-04-14T16:43:39.111Z,100778.38
2024-04-14T16:46:06.927Z,100785.25
2024-04-14T16:48:35.273Z,100783.96
2024-04-14T16:51:03.657Z,100783.23
2024-04-14T16:53:32.947Z,100781.58
2024-04-14T16:56:01.047Z,100777.96
2024-04-14T16:58:28.992Z,100783.58
2024-04-14T17:00:56.884Z,100785.58
2024-04-14T17:03:24.951Z,100786.34
2024-04-14T17:05:53.170Z,100792.35
2024-04-14T17:08:21.380Z,100792.77
2024-04-14T17:10:49.328Z,100794.98
2024-04-14T17:13:19.735Z,100799.14
2024-04-14T17:15:48.696Z,100797.63
2024-04-14T17:18:17.078Z,100807.21
2024-04-14T17:20:48.077Z,100807.77
2024-04-14T17:23:16.833Z,100810.11
2024-04-14T17:25:44.621Z,100810.96
2024-04-14T17:28:12.525Z,100815.02
2024-04-14T17:30:40.419Z,100820.29
2024-04-14T17:33:08.697Z,100820.23
2024-04-14T17:35:36.805Z,100825.42
2024-04-14T17:38:04.824Z,100829.09
2024-04-14T17:40:32.837Z,100834.84
2024-04-14T17:43:00.786Z,100838.94
2024-04-14T17:45:30.031Z,100843.83
2024-04-14T17:47:58.670Z,100846.91
2024-04-14T17:50:26.743Z,100849.29
2024-04-14T17:52:54.517Z,100853.08
2024-04-14T17:55:22.754Z,100853.54
2024-04-14T17:57:50.715Z,100858.63
2024-04-14T18:00:18.714Z,100862.39
2024-04-14T18:02:46.786Z,100865.55
2024-04-14T18:05:15.746Z,100859.79
2024-04-14T18:07:43.671Z,100860.20
2024-04-14T18:10:11.483Z,100865.20
2024-04-14T18:12:44.153Z,100863.33
2024-04-14T18:15:12.192Z,100865.42
2024-04-14T18:17:40.238Z,100867.13
2024-04-14T18:20:08.883Z,100867.71
2024-04-14T18:22:36.700Z,100869.60
2024-04-14T18:25:04.803Z,100869.23
2024-04-14T18:27:33.366Z,100871.51
2024-04-14T18:30:01.403Z,100872.68
2024-04-14T18:32:29.319Z,100875.39
2024-04-14T18:34:57.116Z,100878.78
2024-04-14T18:37:25.249Z,100880.85
2024-04-14T18:39:53.233Z,100887.54
2024-04-14T18:42:21.027Z,100889.73
2024-04-14T18:44:49.472Z,100892.34
2024-04-14T18:47:18.576Z,100891.12
2024-04-14T18:49:47.526Z,100892.68
2024-04-14T18:52:15.645Z,100893.27
2024-04-14T18:54:44.173Z,100894.69
2024-04-14T18:57:12.345Z,100894.17
2024-04-14T18:59:40.533Z,100892.27
2024-04-14T19:02:08.454Z,100896.65
2024-04-14T19:04:39.072Z,100894.91
2024-04-14T19:07:07.234Z,100897.52
2024-04-14T19:09:35.382Z,100897.43
2024-04-14T19:12:04.438Z,100896.62
2024-04-14T19:14:32.560Z,100893.25
2024-04-14T19:17:01.538Z,100893.58
2024-04-14T19:19:29.510Z,100894.71
2024-04-14T19:21:57.895Z,100896.64
2024-04-14T19:24:25.851Z,100897.05
2024-04-14T19:26:53.864Z,100901.55
2024-04-14T19:29:21.990Z,100901.98
2024-04-14T19:31:50.090Z,100905.11
2024-04-14T19:34:18.095Z,100903.57
2024-04-14T19:36:46.007Z,100903.88
2024-04-14T19:39:15.115Z,100906.73
2024-04-14T19:41:43.160Z,100907.84
2024-04-14T19:44:11.571Z,100905.98
2024-04-14T19:46:42.294Z,100908.09
2024-04-14T19:49:11.086Z,100909.30
2024-04-14T19:51:40.536Z,100909.79
2024-04-14T19:54:08.535Z,100915.05
2024-04-14T19:56:36.705Z,100916.64
2024-04-14T19:59:04.838Z,100916.80
2024-04-14T20:01:32.958Z,100915.84
2024-04-14T20:04:01.217Z,100915.92
2024-04-14T20:06:29.511Z,100920.14
2024-04-14T20:08:58.202Z,100922.02
2024-04-14T20:11:26.305Z,100921.46
2024-04-14T20:13:54.421Z,100921.75
2024-04-14T20:16:22.342Z,100919.91
2024-04-14T20:18:50.597Z,100920.53
2024-04-14T20:21:18.580Z,100919.16
2024-04-14T20:23:46.542Z,100919.29
2024-04-14T20:26:14.785Z,100921.81
2024-04-14T20:28:46.461Z,100919.86
2024-04-14T20:31:14.874Z,100911.42
2024-04-14T20:33:42.745Z,100913.63
2024-04-14T20:36:12.603Z,100915.57
2024-04-14T20:38:40.759Z,100911.77
2024-04-14T20:41:08.801Z,100919.20
2024-04-14T20:43:36.606Z,100911.10
2024-04-14T20:46:04.581Z,100908.16
2024-04-14T20:48:33.071Z,100906.98
2024-04-14T20:51:01.746Z,100910.05
2024-04-14T20:53:29.611Z,100906.23
2024-04-14T20:55:57.691Z,100906.20
2024-04-14T20:58:25.427Z,100909.70
2024-04-14T21:00:53.336Z,100912.45
2024-04-14T21:03:21.508Z,100917.00
2024-04-14T21:05:49.462Z,100914.38
2024-04-14T21:08:17.215Z,100919.55
2024-04-14T21:10:45.078Z,100913.36
2024-04-14T21:13:13.437Z,100912.01
2024-04-14T21:15:41.712Z,100914.23
2024-04-14T21:18:09.933Z,100916.34
2024-04-14T21:20:37.783Z,100914.75
2024-04-14T21:23:07.309Z,100916.52
2024-04-14T21:25:35.134Z,100920.16
2024-04-14T21:28:03.716Z,100912.38
2024-04-14T21:30:31.537Z,100912.95
2024-04-14T21:32:59.661Z,100906.73
2024-04-14T21:35:27.958Z,100906.01
2024-04-14T21:37:56.048Z,100909.36
2024-04-14T21:40:24.216Z,100910.42
2024-04-14T21:42:52.359Z,100905.73
2024-04-14T21:45:20.457Z,100909.86
2024-04-14T21:47:49.748Z,100909.57
2024-04-14T21:50:17.699Z,100909.58
2024-04-14T21:52:45.877Z,100907.14
2024-04-14T21:55:13.959Z,100910.16
2024-04-14T21:57:42.584Z,100907.66
2024-04-14T22:00:11.147Z,100908.40
2024-04-14T22:02:39.198Z,100909.98
2024-04-14T22:05:08.080Z,100908.40
2024-04-14T22:07:36.148Z,100905.54
2024-04-14T22:10:04.883Z,100901.55
2024-04-14T22:12:33.313Z,100900.98
2024-04-14T22:15:01.254Z,100901.73
2024-04-14T22:17:29.242Z,100904.23
2024-04-14T22:19:57.243Z,100903.05
2024-04-14T22:22:25.236Z,100904.18
2024-04-14T22:24:53.337Z,100903.02
2024-04-14T22:27:21.123Z,100903.78
2024-04-14T22:29:49.454Z,100904.75
2024-04-14T22:32:17.431Z,100904.21
2024-04-14T22:34:45.882Z,100901.10
2024-04-14T22:37:13.950Z,100897.80
2024-04-14T22:39:41.947Z,100894.42
2024-04-14T22:42:09.748Z,100883.99
2024-04-14T22:44:37.609Z,100881.49
2024-04-14T22:47:05.561Z,100875.36
2024-04-14T22:49:34.576Z,100870.72
2024-04-14T22:52:02.690Z,100876.34
2024-04-14T22:54:30.855Z,100874.36
2024-04-14T22:56:59.222Z,100872.84
2024-04-14T22:59:27.299Z,100873.64
2024-04-14T23:01:55.312Z,100868.08
2024-04-14T23:04:23.493Z,100872.02
2024-04-14T23:06:52.092Z,100873.20
2024-04-14T23:09:19.958Z,100877.65
2024-04-14T23:11:48.113Z,100880.33
2024-04-14T23:14:16.790Z,100880.05
2024-04-14T23:16:44.585Z,100879.98
2024-04-14T23:19:12.613Z,100879.11
2024-04-14T23:21:40.786Z,100887.05
2024-04-14T23:24:08.585Z,100889.96
2024-04-14T23:26:36.589Z,100890.95
2024-04-14T23:29:04.847Z,100891.77
2024-04-14T23:31:32.712Z,100896.59
2024-04-14T23:34:02.008Z,100898.87
2024-04-14T23:36:29.834Z,100899.39
2024-04-14T23:38:59.716Z,100900.45
2024-04-14T23:41:27.650Z,100903.75
2024-04-14T23:43:55.642Z,100906.30
2024-04-14T23:46:23.588Z,100906.81
2024-04-14T23:48:51.644Z,100904.16
2024-04-14T23:51:19.504Z,100905.04
2024-04-14T23:53:47.850Z,100906.02
2024-04-14T23:56:15.954Z,100910.14
2024-04-14T23:58:43.733Z,100916.43
